Shaw Air Force Base
KSSC : now visible

Airfield :











YOU CAN JOIN US ON...

 
LOGIN :

Register | Disclaimer

   EN    FR    IT 

 









Legend :    VFR   Marginal VFR   IFR   Intensive IFR   Very Intensive IFR
Visi :
Ceiling :
>= 8 km
>= 3000ft
5 to 8 km
1000 to 3000 ft
1500m to 5 km
500 to 1000 ft
800 to 1500m
200 to 500 ft
< 800m
< 200 ft
Symbols :   Thunderstorms  Fog  Heavy snow  Heavy precipitations  Wind > 20 kt






- Airport Elevation : 241 ft


KSSC - Shaw Air Force Base

CURRENT METAR :
  • 021656Z AUTO 26007KT 10SM SCT030 BKN035 29/22 A3003 RMK AO2 SLP168 T02860218 $

EXPIRED METARs :
  • 021611Z AUTO 35003KT 10SM FEW021 BKN033 28/22 A3003 RMK AO2 SLP169 $
  • 021556Z AUTO 30006KT 10SM FEW019 BKN026 BKN033 28/22 A3003 RMK AO2 CIG 026V033 SLP169 T02770222 $
  • 021456Z AUTO 31005KT 10SM FEW015 BKN023 26/22 A3004 RMK AO2 SLP172 T02590215 51007 $
  • 021441Z AUTO 00000KT 10SM SCT014 OVC023 26/21 A3003 RMK AO2 CIG 014V023 SLP169 $

TAF TAF KSSC
Valid from the 02 at 15:00 until the 03 at 21:00 UTC


021500Z 0215/0321 31006KT 9999 SCT020 BKN040 QNH3001INS
BECMG 0221/0222 20006KT 9999 BKN055 QNH2993INS
BECMG 0307/0308 20006KT 8000 BR SCT020 OVC040 QNH2997INS
BECMG 0310/0311 20006KT 9999 NSW SCT040 BKN055 QNH3000INS
BECMG 0319/0320 23006KT 9000 -SHRA BKN045 QNH2999INS TX32/0222Z TN22/0308Z LAST NO AMDS AFT 0215 NEXT 0223
KZJX FIR / North America



MET'MAP, your aeronautical weather chart ! - Copyright ORBIFLY December 2007 - Disclaimer

ORBIFLY MET'MAP TEAM :

Programming & Development : Alexandra Zaïnal
Original concept : Baudouin d'Aumeries
Technical & hardware support : Manuel Goepfert
Assistance : Marc-Olivier Méhu




SOURCES & CREDITS :

   NOAA       Earth
Advisory